Time;durP1;ratioP1;P1;durP2;ratioP2;P2;SDS_P1;SDS_P2;PMS_P1;PMS_P2;Temp;Humidity;BMP_temperature;BMP_pressure;BME280_temperature;BME280_humidity;BME280_pressure;Samples;Min_cycle;Max_cycle;Signal;HPM_P1;HPM_P2
2023/03/01 00:01:09;;;;;;;13.65;9.60;;;;;;;;;;5033097;28;20047;-69
2023/03/01 00:03:35;;;;;;;15.30;10.10;;;;;;;;;;5032913;28;20475;-69
2023/03/01 00:06:02;;;;;;;12.48;9.32;;;;;;;;;;5033083;28;20033;-68
2023/03/01 00:08:29;;;;;;;13.73;10.00;;;;;;;;;;5032970;28;20489;-69
2023/03/01 00:11:02;;;;;;;13.90;9.73;;;;;;;;;;5032670;28;20029;-68
2023/03/01 00:13:28;;;;;;;14.43;9.60;;;;;;;;;;5032598;28;20037;-69
2023/03/01 00:15:54;;;;;;;13.65;9.50;;;;;;;;;;5032792;28;20528;-68
2023/03/01 00:18:22;;;;;;;14.00;9.70;;;;;;;;;;5033016;28;20036;-69
2023/03/01 00:20:55;;;;;;;15.02;10.30;;;;;;;;;;5032735;28;20017;-69
2023/03/01 00:23:21;;;;;;;13.48;9.93;;;;;;;;;;5032587;28;20033;-68
2023/03/01 00:25:47;;;;;;;13.68;10.15;;;;;;;;;;5032881;28;20029;-68
2023/03/01 00:28:14;;;;;;;13.32;9.88;;;;;;;;;;5032801;28;20543;-69
2023/03/01 00:30:40;;;;;;;16.48;10.30;;;;;;;;;;5032515;28;20029;-69
2023/03/01 00:33:07;;;;;;;17.73;10.48;;;;;;;;;;5032651;28;20035;-68
2023/03/01 00:35:33;;;;;;;15.70;11.05;;;;;;;;;;5032445;28;20033;-69
2023/03/01 00:38:00;;;;;;;26.70;15.50;;;;;;;;;;5032182;28;20482;-69
2023/03/01 00:40:29;;;;;;;31.50;15.25;;;;;;;;;;5032600;28;20036;-69
2023/03/01 00:42:56;;;;;;;17.05;10.77;;;;;;;;;;5032416;28;20045;-68
2023/03/01 00:45:22;;;;;;;14.43;9.23;;;;;;;;;;5032547;28;20034;-68
2023/03/01 00:47:49;;;;;;;13.75;9.13;;;;;;;;;;5032490;28;20397;-68
2023/03/01 00:50:15;;;;;;;15.65;10.13;;;;;;;;;;5032593;28;20033;-68
2023/03/01 00:52:42;;;;;;;18.17;11.15;;;;;;;;;;5032177;28;20914;-68
2023/03/01 00:55:08;;;;;;;19.60;12.48;;;;;;;;;;5032604;28;20040;-69
2023/03/01 00:57:34;;;;;;;18.92;12.90;;;;;;;;;;5032263;28;20016;-69
2023/03/01 01:00:01;;;;;;;15.95;11.27;;;;;;;;;;5032443;28;20496;-69
2023/03/01 01:02:27;;;;;;;19.23;10.75;;;;;;;;;;5032339;28;20482;-68
2023/03/01 01:04:53;;;;;;;17.63;11.52;;;;;;;;;;5032740;28;20033;-68
2023/03/01 01:07:20;;;;;;;19.25;12.65;;;;;;;;;;5031844;28;20067;-69
2023/03/01 01:09:46;;;;;;;19.20;11.77;;;;;;;;;;5032468;28;20021;-69
2023/03/01 01:12:12;;;;;;;20.25;12.40;;;;;;;;;;5032220;28;20030;-69
2023/03/01 01:14:39;;;;;;;20.67;12.38;;;;;;;;;;5032232;28;20018;-69
2023/03/01 01:17:05;;;;;;;21.20;12.90;;;;;;;;;;5032253;28;20375;-68
2023/03/01 01:19:32;;;;;;;22.25;13.40;;;;;;;;;;5032159;28;20503;-68
2023/03/01 01:21:58;;;;;;;17.08;11.82;;;;;;;;;;5031841;28;20025;-68
2023/03/01 01:24:24;;;;;;;15.40;10.45;;;;;;;;;;5032231;28;20034;-69
2023/03/01 01:26:50;;;;;;;17.92;11.45;;;;;;;;;;5035098;28;20025;-68
2023/03/01 01:29:17;;;;;;;16.08;10.68;;;;;;;;;;5035983;28;20025;-69
2023/03/01 01:31:43;;;;;;;13.85;10.55;;;;;;;;;;5036004;28;20021;-68
2023/03/01 01:34:13;;;;;;;13.98;10.15;;;;;;;;;;5035704;28;20482;-68
2023/03/01 01:36:40;;;;;;;18.37;11.00;;;;;;;;;;5035719;28;20025;-69
2023/03/01 01:39:07;;;;;;;16.95;10.52;;;;;;;;;;5035774;28;20027;-69
2023/03/01 01:41:33;;;;;;;15.00;10.50;;;;;;;;;;5035632;28;20037;-68
2023/03/01 01:44:18;;;;;;;14.52;9.77;;;;;;;;;;5035387;28;20049;-68
2023/03/01 01:46:55;;;;;;;17.70;9.90;;;;;;;;;;5035488;28;20033;-69
2023/03/01 01:49:27;;;;;;;13.82;9.98;;;;;;;;;;5035555;28;20025;-69
2023/03/01 01:52:00;;;;;;;15.35;9.75;;;;;;;;;;5035270;28;20037;-69
2023/03/01 01:54:39;;;;;;;12.65;9.52;;;;;;;;;;5035713;28;20010;-68
2023/03/01 01:57:08;;;;;;;14.30;10.82;;;;;;;;;;5035339;28;20385;-68
2023/03/01 01:59:34;;;;;;;16.67;10.50;;;;;;;;;;5035583;28;20025;-68
2023/03/01 02:02:02;;;;;;;15.45;10.48;;;;;;;;;;5035737;28;20029;-69
2023/03/01 02:04:29;;;;;;;15.00;10.50;;;;;;;;;;5035087;28;20047;-69
2023/03/01 02:07:01;;;;;;;16.23;10.27;;;;;;;;;;5034775;28;20025;-68
2023/03/01 02:09:28;;;;;;;17.80;10.70;;;;;;;;;;5035144;28;20021;-69
2023/03/01 02:11:54;;;;;;;16.33;10.38;;;;;;;;;;5035418;28;20029;-69
2023/03/01 02:14:21;;;;;;;17.25;10.30;;;;;;;;;;5035269;28;20033;-68
2023/03/01 02:16:48;;;;;;;15.85;11.13;;;;;;;;;;5034975;28;20022;-68
2023/03/01 02:19:21;;;;;;;15.48;10.52;;;;;;;;;;5035253;28;20034;-69
2023/03/01 02:21:47;;;;;;;19.13;10.27;;;;;;;;;;5033748;28;20041;-69
2023/03/01 02:24:37;;;;;;;14.98;10.10;;;;;;;;;;5034802;28;20043;-69
2023/03/01 02:27:03;;;;;;;14.40;10.00;;;;;;;;;;5034438;28;20032;-68
2023/03/01 02:29:30;;;;;;;14.35;10.63;;;;;;;;;;5034843;28;20025;-68
2023/03/01 02:31:58;;;;;;;15.13;9.95;;;;;;;;;;5034786;28;20087;-69
2023/03/01 02:34:25;;;;;;;17.20;11.25;;;;;;;;;;5034692;28;20036;-68
2023/03/01 02:37:12;;;;;;;13.25;9.73;;;;;;;;;;5034419;28;20018;-69
2023/03/01 02:39:41;;;;;;;17.00;10.93;;;;;;;;;;5034506;28;20393;-69
2023/03/01 02:42:10;;;;;;;14.07;10.52;;;;;;;;;;5034629;28;20029;-68
2023/03/01 02:44:36;;;;;;;15.68;9.77;;;;;;;;;;5034295;28;20045;-69
2023/03/01 02:47:03;;;;;;;12.63;9.40;;;;;;;;;;5034844;28;20038;-69
2023/03/01 02:49:31;;;;;;;12.63;10.15;;;;;;;;;;5034372;28;20025;-69
2023/03/01 02:52:16;;;;;;;12.93;9.70;;;;;;;;;;5034320;28;20021;-68
2023/03/01 02:54:53;;;;;;;12.88;9.50;;;;;;;;;;5034490;28;20024;-69
2023/03/01 02:57:19;;;;;;;12.40;10.02;;;;;;;;;;5034449;28;20094;-69
2023/03/01 02:59:45;;;;;;;17.38;10.25;;;;;;;;;;5034431;28;20028;-68
2023/03/01 03:02:38;;;;;;;16.55;9.77;;;;;;;;;;5034281;28;20367;-69
2023/03/01 03:05:08;;;;;;;15.25;9.80;;;;;;;;;;5033900;28;20137;-68
2023/03/01 03:07:35;;;;;;;13.90;10.07;;;;;;;;;;5034414;28;20021;-69
2023/03/01 03:10:03;;;;;;;20.40;10.70;;;;;;;;;;5034153;28;20028;-69
2023/03/01 03:12:29;;;;;;;16.40;10.68;;;;;;;;;;5034151;28;20283;-69
2023/03/01 03:14:55;;;;;;;13.52;9.98;;;;;;;;;;5034027;28;20393;-68
2023/03/01 03:17:21;;;;;;;16.52;10.65;;;;;;;;;;5034017;28;20052;-68
2023/03/01 03:19:48;;;;;;;14.07;9.55;;;;;;;;;;5033869;28;20378;-69
2023/03/01 03:22:14;;;;;;;13.57;9.65;;;;;;;;;;5033949;28;20025;-68
2023/03/01 03:24:40;;;;;;;14.02;9.85;;;;;;;;;;5033929;28;20030;-68
2023/03/01 03:27:07;;;;;;;13.90;10.18;;;;;;;;;;5033802;28;20389;-68
2023/03/01 03:29:34;;;;;;;14.93;10.43;;;;;;;;;;5033772;28;20052;-69
2023/03/01 03:32:00;;;;;;;14.82;10.38;;;;;;;;;;5033343;28;20052;-68
2023/03/01 03:34:26;;;;;;;16.30;10.63;;;;;;;;;;5033605;28;20295;-69
2023/03/01 03:36:59;;;;;;;14.45;10.15;;;;;;;;;;5032340;28;20025;-69
2023/03/01 03:39:26;;;;;;;12.95;10.05;;;;;;;;;;5033768;28;20026;-68
2023/03/01 03:41:53;;;;;;;15.52;10.35;;;;;;;;;;5033552;28;20027;-68
2023/03/01 03:44:20;;;;;;;15.30;9.95;;;;;;;;;;5033130;28;20060;-69
2023/03/01 03:46:46;;;;;;;16.35;10.30;;;;;;;;;;5033000;28;20385;-69
2023/03/01 03:49:12;;;;;;;14.70;9.90;;;;;;;;;;5032915;28;20025;-68
2023/03/01 03:51:38;;;;;;;14.77;10.60;;;;;;;;;;5033343;28;20029;-69
2023/03/01 03:54:05;;;;;;;14.68;10.25;;;;;;;;;;5033453;28;20032;-69
2023/03/01 03:56:31;;;;;;;14.68;10.25;;;;;;;;;;5033141;28;20021;-68
2023/03/01 03:58:58;;;;;;;20.15;10.38;;;;;;;;;;5033538;28;20017;-69
2023/03/01 04:01:24;;;;;;;15.38;9.75;;;;;;;;;;5032868;28;20032;-69
2023/03/01 04:03:54;;;;;;;16.73;10.45;;;;;;;;;;5033054;28;20393;-69
2023/03/01 04:06:20;;;;;;;16.98;10.43;;;;;;;;;;5033172;28;20029;-69
2023/03/01 04:08:50;;;;;;;12.93;9.48;;;;;;;;;;5033232;28;20031;-69
2023/03/01 04:11:26;;;;;;;13.18;9.27;;;;;;;;;;5033162;28;20393;-68
2023/03/01 04:13:53;;;;;;;13.77;10.13;;;;;;;;;;5032992;28;20035;-66
2023/03/01 04:16:20;;;;;;;15.23;10.18;;;;;;;;;;5032499;28;20536;-68
2023/03/01 04:18:46;;;;;;;14.10;10.52;;;;;;;;;;5032835;28;20432;-68
2023/03/01 04:21:13;;;;;;;15.48;9.82;;;;;;;;;;5033031;28;20020;-68
2023/03/01 04:23:40;;;;;;;13.68;10.52;;;;;;;;;;5032911;28;20036;-68
2023/03/01 04:26:07;;;;;;;16.35;9.98;;;;;;;;;;5032841;28;20025;-68
2023/03/01 04:28:35;;;;;;;14.25;10.43;;;;;;;;;;5032583;28;20504;-68
2023/03/01 04:31:12;;;;;;;13.63;9.90;;;;;;;;;;5032384;28;20490;-68
2023/03/01 04:33:49;;;;;;;12.30;9.18;;;;;;;;;;5032453;28;20028;-69
2023/03/01 04:36:16;;;;;;;17.00;10.25;;;;;;;;;;5032741;28;20025;-69
2023/03/01 04:38:47;;;;;;;14.02;10.02;;;;;;;;;;5032285;28;20025;-69
2023/03/01 04:41:14;;;;;;;16.05;10.68;;;;;;;;;;5032679;28;20436;-69
2023/03/01 04:43:40;;;;;;;15.65;10.05;;;;;;;;;;5032220;28;20041;-68
2023/03/01 04:46:09;;;;;;;14.77;10.35;;;;;;;;;;5032191;28;20029;-68
2023/03/01 04:48:36;;;;;;;17.50;10.80;;;;;;;;;;5032437;28;20090;-69
2023/03/01 04:51:03;;;;;;;15.82;10.80;;;;;;;;;;5032765;28;20014;-69
2023/03/01 04:53:29;;;;;;;16.23;11.35;;;;;;;;;;5032689;28;20055;-68
2023/03/01 04:55:56;;;;;;;14.88;10.95;;;;;;;;;;5032618;28;20083;-68
2023/03/01 04:58:28;;;;;;;17.10;10.82;;;;;;;;;;5032515;28;20028;-68
2023/03/01 05:00:55;;;;;;;17.08;11.55;;;;;;;;;;5035422;28;20032;-68
2023/03/01 05:03:21;;;;;;;22.85;13.65;;;;;;;;;;5036371;28;20033;-68
2023/03/01 05:05:48;;;;;;;22.83;14.80;;;;;;;;;;5036487;28;20099;-69
2023/03/01 05:08:17;;;;;;;22.08;12.70;;;;;;;;;;5036422;28;20460;-68
2023/03/01 05:10:46;;;;;;;19.55;11.50;;;;;;;;;;5036670;28;20033;-69
2023/03/01 05:13:20;;;;;;;16.55;11.32;;;;;;;;;;5036559;28;20022;-69
2023/03/01 05:15:48;;;;;;;16.23;11.05;;;;;;;;;;5035885;28;20393;-69
2023/03/01 05:18:14;;;;;;;17.20;10.73;;;;;;;;;;5036218;28;20021;-68
2023/03/01 05:20:40;;;;;;;15.43;10.40;;;;;;;;;;5036286;28;20374;-69
2023/03/01 05:23:07;;;;;;;16.35;11.07;;;;;;;;;;5036198;28;20367;-68
2023/03/01 05:25:34;;;;;;;15.88;10.45;;;;;;;;;;5035737;28;20060;-68
2023/03/01 05:28:04;;;;;;;16.85;10.15;;;;;;;;;;5035827;28;20026;-68
2023/03/01 05:30:31;;;;;;;15.15;11.10;;;;;;;;;;5035867;28;20018;-68
2023/03/01 05:32:57;;;;;;;16.98;10.60;;;;;;;;;;5035951;28;20025;-68
2023/03/01 05:35:24;;;;;;;15.02;10.57;;;;;;;;;;5035896;28;20033;-69
2023/03/01 05:37:51;;;;;;;15.30;10.70;;;;;;;;;;5036036;28;20026;-68
2023/03/01 05:40:19;;;;;;;13.45;10.15;;;;;;;;;;5034772;28;20397;-69
2023/03/01 05:42:46;;;;;;;17.13;11.15;;;;;;;;;;5035452;28;20409;-69
2023/03/01 05:45:13;;;;;;;15.73;11.45;;;;;;;;;;5035512;28;20098;-69
2023/03/01 05:47:43;;;;;;;39.13;29.63;;;;;;;;;;5035659;28;20026;-69
2023/03/01 05:50:18;;;;;;;19.77;14.35;;;;;;;;;;5035753;28;20029;-69
2023/03/01 05:52:44;;;;;;;15.98;11.52;;;;;;;;;;5035843;28;20021;-69
2023/03/01 05:55:11;;;;;;;17.92;10.95;;;;;;;;;;5035572;28;20040;-68
2023/03/01 05:57:37;;;;;;;17.50;10.80;;;;;;;;;;5035134;28;20501;-68
2023/03/01 06:00:03;;;;;;;15.63;11.43;;;;;;;;;;5035774;28;20033;-69
2023/03/01 06:02:30;;;;;;;18.40;11.40;;;;;;;;;;5035212;28;20029;-69
2023/03/01 06:04:56;;;;;;;16.92;11.00;;;;;;;;;;5035147;28;20033;-68
2023/03/01 06:07:22;;;;;;;14.38;10.98;;;;;;;;;;5035085;28;20076;-68
2023/03/01 06:09:49;;;;;;;13.65;10.70;;;;;;;;;;5035486;28;20029;-68
2023/03/01 06:12:15;;;;;;;18.58;11.52;;;;;;;;;;5034134;28;20029;-68
2023/03/01 06:14:41;;;;;;;16.42;11.45;;;;;;;;;;5035305;28;20031;-68
2023/03/01 06:17:07;;;;;;;18.08;12.25;;;;;;;;;;5035131;28;20021;-69
2023/03/01 06:19:34;;;;;;;18.75;12.57;;;;;;;;;;5034939;28;20037;-68
2023/03/01 06:22:00;;;;;;;15.55;11.23;;;;;;;;;;5034823;28;20425;-68
2023/03/01 06:24:28;;;;;;;17.70;11.85;;;;;;;;;;5035059;28;20043;-69
2023/03/01 06:26:55;;;;;;;15.75;11.30;;;;;;;;;;5034683;28;20037;-68
2023/03/01 06:29:22;;;;;;;19.20;12.05;;;;;;;;;;5034867;28;20029;-69
2023/03/01 06:31:49;;;;;;;16.73;11.90;;;;;;;;;;5035143;28;20020;-68
2023/03/01 06:34:15;;;;;;;18.13;12.55;;;;;;;;;;5034643;28;20412;-69
2023/03/01 06:36:42;;;;;;;20.27;13.60;;;;;;;;;;5034778;28;20025;-69
2023/03/01 06:39:08;;;;;;;39.30;19.30;;;;;;;;;;5034930;28;20029;-69
2023/03/01 06:41:35;;;;;;;20.80;13.20;;;;;;;;;;5034527;28;20022;-68
2023/03/01 06:44:02;;;;;;;17.33;11.63;;;;;;;;;;5034455;28;20049;-69
2023/03/01 06:46:28;;;;;;;20.63;13.00;;;;;;;;;;5034535;28;20030;-69
2023/03/01 06:48:55;;;;;;;18.70;12.20;;;;;;;;;;5034692;28;20032;-69
2023/03/01 06:51:21;;;;;;;19.65;12.63;;;;;;;;;;5034301;28;20051;-68
2023/03/01 06:53:47;;;;;;;18.25;12.25;;;;;;;;;;5034660;28;20028;-68
2023/03/01 06:56:14;;;;;;;21.02;12.93;;;;;;;;;;5032886;28;20470;-68
2023/03/01 06:58:40;;;;;;;25.50;15.82;;;;;;;;;;5034477;28;20029;-68
2023/03/01 07:01:07;;;;;;;26.08;16.63;;;;;;;;;;5034350;28;20389;-69
2023/03/01 07:03:34;;;;;;;26.00;14.95;;;;;;;;;;5034256;28;20048;-68
2023/03/01 07:06:00;;;;;;;27.75;17.10;;;;;;;;;;5034205;28;20037;-68
2023/03/01 07:08:27;;;;;;;38.35;20.77;;;;;;;;;;5034352;28;20030;-69
2023/03/01 07:10:56;;;;;;;41.55;25.17;;;;;;;;;;5033820;28;20037;-69
2023/03/01 07:13:23;;;;;;;34.35;22.55;;;;;;;;;;5034092;28;20020;-69
2023/03/01 07:15:49;;;;;;;40.17;24.33;;;;;;;;;;5031617;28;20021;-69
2023/03/01 07:18:15;;;;;;;36.50;22.38;;;;;;;;;;5029445;28;20033;-69
2023/03/01 07:20:42;;;;;;;30.67;21.38;;;;;;;;;;5032252;28;20038;-69
2023/03/01 07:23:08;;;;;;;28.50;18.38;;;;;;;;;;5031278;28;20432;-69
2023/03/01 07:25:34;;;;;;;20.65;14.05;;;;;;;;;;5031833;28;20037;-68
2023/03/01 07:28:01;;;;;;;15.00;11.25;;;;;;;;;;5032278;28;20389;-68
2023/03/01 07:30:28;;;;;;;17.63;12.43;;;;;;;;;;5032297;28;20018;-68
2023/03/01 07:32:55;;;;;;;20.10;13.40;;;;;;;;;;5032141;28;20022;-68
2023/03/01 07:35:21;;;;;;;16.67;11.60;;;;;;;;;;5032081;28;20014;-69
2023/03/01 07:37:47;;;;;;;21.88;12.98;;;;;;;;;;5032338;28;20040;-68
2023/03/01 07:40:14;;;;;;;17.45;11.38;;;;;;;;;;5031576;28;20384;-69
2023/03/01 07:42:40;;;;;;;14.90;10.68;;;;;;;;;;5031838;28;20045;-69
2023/03/01 07:45:07;;;;;;;14.65;10.57;;;;;;;;;;5032198;28;20035;-68
2023/03/01 07:47:33;;;;;;;19.88;13.27;;;;;;;;;;5031828;28;20409;-69
2023/03/01 07:50:00;;;;;;;17.58;12.55;;;;;;;;;;5031989;28;20094;-69
2023/03/01 07:52:27;;;;;;;16.85;11.68;;;;;;;;;;5027326;28;20017;-67
2023/03/01 07:54:53;;;;;;;23.58;13.20;;;;;;;;;;5030919;28;20026;-68
2023/03/01 07:57:20;;;;;;;23.67;13.27;;;;;;;;;;5031232;28;20433;-68
2023/03/01 07:59:46;;;;;;;23.17;14.45;;;;;;;;;;5031456;28;20037;-67
2023/03/01 08:02:12;;;;;;;20.08;13.75;;;;;;;;;;5031078;28;20082;-67
2023/03/01 08:04:38;;;;;;;18.55;12.38;;;;;;;;;;5031238;28;20035;-68
2023/03/01 08:07:05;;;;;;;16.30;11.65;;;;;;;;;;5031272;28;20432;-67
2023/03/01 08:09:32;;;;;;;16.77;11.52;;;;;;;;;;5031196;28;20025;-68
2023/03/01 08:11:59;;;;;;;15.10;11.00;;;;;;;;;;5030210;28;20022;-69
2023/03/01 08:14:25;;;;;;;17.63;11.85;;;;;;;;;;5031165;28;20032;-68
2023/03/01 08:16:52;;;;;;;17.85;11.05;;;;;;;;;;5031634;28;20024;-69
2023/03/01 08:19:18;;;;;;;16.15;11.32;;;;;;;;;;5029908;28;20032;-68
2023/03/01 08:21:44;;;;;;;16.10;11.07;;;;;;;;;;5031281;28;20025;-69
2023/03/01 08:24:11;;;;;;;18.63;11.65;;;;;;;;;;5030952;28;20494;-68
2023/03/01 08:26:37;;;;;;;28.23;16.30;;;;;;;;;;5031209;28;20398;-69
2023/03/01 08:29:04;;;;;;;14.20;10.50;;;;;;;;;;5031173;28;20092;-69
2023/03/01 08:31:37;;;;;;;15.98;8.93;;;;;;;;;;5031701;28;20033;-68
2023/03/01 08:34:06;;;;;;;13.77;9.43;;;;;;;;;;5030549;28;20042;-68
2023/03/01 08:36:35;;;;;;;11.85;9.05;;;;;;;;;;5031179;28;20026;-68
2023/03/01 08:39:02;;;;;;;11.68;9.27;;;;;;;;;;5031176;28;20025;-68
2023/03/01 08:41:28;;;;;;;10.68;9.13;;;;;;;;;;5032062;28;20078;-68
2023/03/01 08:43:58;;;;;;;10.85;8.63;;;;;;;;;;5031399;28;20054;-69
2023/03/01 08:46:33;;;;;;;9.93;8.70;;;;;;;;;;5031945;28;20072;-69
2023/03/01 08:49:00;;;;;;;10.93;8.25;;;;;;;;;;5031785;28;20075;-69
2023/03/01 08:51:31;;;;;;;10.75;8.40;;;;;;;;;;5031601;28;20029;-67
2023/03/01 08:53:58;;;;;;;10.70;8.07;;;;;;;;;;5031728;28;20037;-69
2023/03/01 08:56:24;;;;;;;9.27;8.23;;;;;;;;;;5030711;28;20021;-69
2023/03/01 08:58:50;;;;;;;9.63;8.45;;;;;;;;;;5030861;28;20031;-69
2023/03/01 09:01:18;;;;;;;12.70;9.55;;;;;;;;;;5030878;28;20443;-69
2023/03/01 09:03:44;;;;;;;9.75;7.70;;;;;;;;;;5030856;28;20032;-69
2023/03/01 09:06:12;;;;;;;12.38;8.15;;;;;;;;;;5031471;28;20478;-68
2023/03/01 09:08:39;;;;;;;9.32;8.05;;;;;;;;;;5031549;28;20032;-69
2023/03/01 09:11:06;;;;;;;10.45;8.48;;;;;;;;;;5031917;28;20052;-69
2023/03/01 09:13:33;;;;;;;9.20;8.18;;;;;;;;;;5031355;28;20482;-70
2023/03/01 09:16:01;;;;;;;11.30;8.70;;;;;;;;;;5031949;28;20033;-69
2023/03/01 09:18:27;;;;;;;9.35;7.75;;;;;;;;;;5031576;28;20377;-69
2023/03/01 09:20:54;;;;;;;11.60;8.55;;;;;;;;;;5030995;28;20029;-68
2023/03/01 09:23:21;;;;;;;8.90;8.02;;;;;;;;;;5031478;28;20029;-68
2023/03/01 09:25:47;;;;;;;11.07;8.45;;;;;;;;;;5031029;28;20037;-69
2023/03/01 09:28:14;;;;;;;9.45;8.07;;;;;;;;;;5031304;28;20029;-69
2023/03/01 09:30:40;;;;;;;8.98;7.72;;;;;;;;;;5031188;28;20035;-68
2023/03/01 09:33:06;;;;;;;8.70;7.80;;;;;;;;;;5031265;28;20026;-68
2023/03/01 09:35:33;;;;;;;9.40;7.88;;;;;;;;;;5031010;28;20049;-69
2023/03/01 09:37:59;;;;;;;8.65;7.85;;;;;;;;;;5030992;28;20071;-68
2023/03/01 09:40:27;;;;;;;9.32;8.30;;;;;;;;;;5031284;28;20502;-68
2023/03/01 09:42:54;;;;;;;9.45;8.05;;;;;;;;;;5030985;28;20045;-69
2023/03/01 09:45:46;;;;;;;10.43;8.27;;;;;;;;;;5031148;28;20048;-67
2023/03/01 09:48:15;;;;;;;11.63;8.85;;;;;;;;;;5017629;28;20046;-69
2023/03/01 09:50:44;;;;;;;8.85;7.93;;;;;;;;;;5034019;28;20033;-69
2023/03/01 09:53:12;;;;;;;10.18;9.13;;;;;;;;;;5034810;28;20029;-69
2023/03/01 09:55:38;;;;;;;8.60;7.70;;;;;;;;;;5034867;28;20033;-68
2023/03/01 09:58:19;;;;;;;10.32;8.00;;;;;;;;;;5034483;28;20478;-68
2023/03/01 10:00:48;;;;;;;8.95;8.05;;;;;;;;;;5034741;28;20060;-68
2023/03/01 10:03:20;;;;;;;9.32;8.25;;;;;;;;;;5034648;28;20030;-68
2023/03/01 10:05:59;;;;;;;9.57;7.72;;;;;;;;;;5034510;28;20038;-68
2023/03/01 10:08:25;;;;;;;11.10;8.25;;;;;;;;;;5019391;28;20018;-68
2023/03/01 10:10:52;;;;;;;10.65;8.73;;;;;;;;;;5032764;28;20029;-68
2023/03/01 10:13:28;;;;;;;9.73;8.68;;;;;;;;;;5034486;28;20028;-68
2023/03/01 10:15:57;;;;;;;8.52;7.63;;;;;;;;;;5034463;28;20448;-67
2023/03/01 10:18:27;;;;;;;10.40;8.63;;;;;;;;;;5018416;28;20026;-68
2023/03/01 10:21:00;;;;;;;9.23;8.25;;;;;;;;;;5034012;28;20044;-68
2023/03/01 10:23:28;;;;;;;9.52;8.18;;;;;;;;;;5034035;28;20516;-68
2023/03/01 10:26:06;;;;;;;12.32;8.52;;;;;;;;;;5034069;28;20465;-68
2023/03/01 10:28:55;;;;;;;9.23;8.05;;;;;;;;;;5018619;28;20022;-68
2023/03/01 10:31:27;;;;;;;10.20;7.97;;;;;;;;;;5033518;28;20040;-68
2023/03/01 10:33:56;;;;;;;9.65;7.93;;;;;;;;;;5033750;28;20028;-68
2023/03/01 10:36:23;;;;;;;8.60;7.53;;;;;;;;;;5034094;28;20028;-68
2023/03/01 10:38:52;;;;;;;9.40;8.40;;;;;;;;;;5033798;28;20032;-68
2023/03/01 10:41:18;;;;;;;9.30;8.00;;;;;;;;;;5034136;28;20025;-69
2023/03/01 10:43:47;;;;;;;11.70;8.70;;;;;;;;;;5033722;28;20051;-69
2023/03/01 10:46:24;;;;;;;10.50;8.90;;;;;;;;;;5033628;28;20374;-68
2023/03/01 10:49:16;;;;;;;8.80;7.40;;;;;;;;;;5033353;28;20512;-67
2023/03/01 10:51:44;;;;;;;8.20;7.40;;;;;;;;;;5033303;28;20041;-68
2023/03/01 10:54:17;;;;;;;8.02;7.00;;;;;;;;;;5033583;28;20032;-68
2023/03/01 10:56:48;;;;;;;9.00;7.80;;;;;;;;;;5027273;28;20030;-68
2023/03/01 10:59:29;;;;;;;8.68;7.30;;;;;;;;;;5033581;28;20025;-68
2023/03/01 11:02:05;;;;;;;8.18;7.35;;;;;;;;;;5033360;28;20477;-68
2023/03/01 11:04:31;;;;;;;8.45;7.18;;;;;;;;;;5033374;28;20490;-68
2023/03/01 11:06:59;;;;;;;8.43;7.50;;;;;;;;;;5032453;28;20035;-68
2023/03/01 11:09:27;;;;;;;8.75;7.50;;;;;;;;;;5033179;28;20014;-66
2023/03/01 11:11:54;;;;;;;8.57;7.00;;;;;;;;;;5031274;28;20022;-69
2023/03/01 11:14:28;;;;;;;8.85;7.20;;;;;;;;;;5030876;28;20033;-68
2023/03/01 11:17:13;;;;;;;9.02;7.28;;;;;;;;;;5032715;28;20490;-66
2023/03/01 11:19:39;;;;;;;7.63;6.82;;;;;;;;;;5031741;28;20029;-68
2023/03/01 11:22:13;;;;;;;11.82;8.50;;;;;;;;;;5032668;28;20036;-67
2023/03/01 11:24:40;;;;;;;8.35;7.45;;;;;;;;;;5032341;28;20040;-68
2023/03/01 11:27:12;;;;;;;10.70;8.70;;;;;;;;;;5032882;28;20025;-68
2023/03/01 11:29:57;;;;;;;11.00;8.77;;;;;;;;;;5032343;28;20021;-68
2023/03/01 11:32:25;;;;;;;8.40;7.15;;;;;;;;;;5032710;28;20029;-69
2023/03/01 11:34:55;;;;;;;26.58;16.42;;;;;;;;;;5032447;28;20022;-68
2023/03/01 11:37:32;;;;;;;9.93;8.40;;;;;;;;;;5032591;28;20478;-69
2023/03/01 11:40:04;;;;;;;12.80;10.02;;;;;;;;;;5031573;28;20025;-68
2023/03/01 11:42:46;;;;;;;10.75;8.90;;;;;;;;;;5032325;28;20033;-68
2023/03/01 11:45:13;;;;;;;12.27;9.88;;;;;;;;;;5031570;28;20037;-68
2023/03/01 11:48:01;;;;;;;9.52;8.27;;;;;;;;;;5032292;28;20393;-67
2023/03/01 11:50:31;;;;;;;11.65;9.25;;;;;;;;;;5032062;28;20017;-67
2023/03/01 11:53:04;;;;;;;9.23;7.65;;;;;;;;;;5032215;28;20028;-68
2023/03/01 11:55:46;;;;;;;8.73;7.68;;;;;;;;;;5032242;28;20035;-68
2023/03/01 11:58:23;;;;;;;9.38;7.90;;;;;;;;;;5025923;28;20079;-67
2023/03/01 12:01:01;;;;;;;8.15;7.07;;;;;;;;;;5031318;28;20040;-67
2023/03/01 12:03:27;;;;;;;10.73;8.18;;;;;;;;;;5032293;28;20071;-68
2023/03/01 12:05:54;;;;;;;9.77;8.02;;;;;;;;;;5030761;28;20033;-68
2023/03/01 12:08:20;;;;;;;8.43;7.57;;;;;;;;;;5032169;28;20037;-67
2023/03/01 12:10:51;;;;;;;8.20;7.22;;;;;;;;;;5030841;28;20534;-68
2023/03/01 12:13:18;;;;;;;10.15;8.88;;;;;;;;;;5030840;28;20021;-68
2023/03/01 12:15:58;;;;;;;7.75;6.95;;;;;;;;;;5031342;28;20049;-68
2023/03/01 12:18:34;;;;;;;7.82;7.07;;;;;;;;;;5032049;28;20034;-68
2023/03/01 12:21:19;;;;;;;10.15;7.40;;;;;;;;;;5031524;28;20035;-68
2023/03/01 12:24:04;;;;;;;8.60;7.70;;;;;;;;;;5031668;28;20506;-68
2023/03/01 12:26:33;;;;;;;7.53;6.80;;;;;;;;;;5031951;28;20041;-68
2023/03/01 12:29:11;;;;;;;7.65;6.95;;;;;;;;;;5030920;28;20026;-68
2023/03/01 12:31:42;;;;;;;7.93;7.13;;;;;;;;;;5031602;28;20420;-68
2023/03/01 12:34:23;;;;;;;7.75;7.05;;;;;;;;;;5031712;28;20029;-68
2023/03/01 12:36:49;;;;;;;;;;;;;;;;;;5031340;28;20496;-67
2023/03/01 12:39:44;;;;;;;8.45;6.88;;;;;;;;;;5030644;28;20373;-68
2023/03/01 12:42:19;;;;;;;7.55;6.78;;;;;;;;;;5031852;28;20098;-68
2023/03/01 12:45:01;;;;;;;7.50;6.60;;;;;;;;;;5031299;28;20428;-68
2023/03/01 12:47:27;;;;;;;8.13;7.32;;;;;;;;;;5031458;28;20029;-68
2023/03/01 12:50:00;;;;;;;7.50;6.80;;;;;;;;;;5031312;28;20069;-68
2023/03/01 12:52:29;;;;;;;7.25;6.40;;;;;;;;;;5031921;28;20033;-67
2023/03/01 12:54:57;;;;;;;9.48;6.63;;;;;;;;;;5031506;28;20486;-68
2023/03/01 12:57:26;;;;;;;8.32;6.90;;;;;;;;;;5031272;28;20025;-68
2023/03/01 12:59:52;;;;;;;7.68;6.95;;;;;;;;;;5031658;28;20029;-67
2023/03/01 13:02:18;;;;;;;8.05;7.25;;;;;;;;;;5031427;28;20026;-67
2023/03/01 13:05:16;;;;;;;8.15;7.45;;;;;;;;;;5030437;28;20037;-68
2023/03/01 13:07:50;;;;;;;7.63;6.93;;;;;;;;;;5031265;28;20037;-68
2023/03/01 13:10:29;;;;;;;7.50;6.80;;;;;;;;;;5030055;28;20029;-68
2023/03/01 13:12:56;;;;;;;8.18;6.70;;;;;;;;;;5031523;28;20022;-67
2023/03/01 13:15:22;;;;;;;6.97;6.30;;;;;;;;;;5031132;28;20021;-68
2023/03/01 13:17:49;;;;;;;9.20;6.93;;;;;;;;;;5031675;28;20017;-68
2023/03/01 13:20:17;;;;;;;7.82;7.03;;;;;;;;;;5031521;28;20029;-68
2023/03/01 13:22:45;;;;;;;10.90;6.95;;;;;;;;;;5035493;28;20029;-68
2023/03/01 13:25:13;;;;;;;7.53;6.82;;;;;;;;;;5035436;28;20037;-68
2023/03/01 13:27:40;;;;;;;8.32;6.80;;;;;;;;;;5035197;28;20033;-68
2023/03/01 13:30:26;;;;;;;7.20;6.50;;;;;;;;;;5034693;28;20022;-68
2023/03/01 13:32:52;;;;;;;7.72;7.03;;;;;;;;;;5035124;28;20091;-68
2023/03/01 13:35:18;;;;;;;7.50;6.63;;;;;;;;;;5035256;28;20029;-68
2023/03/01 13:37:45;;;;;;;7.60;6.90;;;;;;;;;;5035321;28;20470;-68
2023/03/01 13:40:18;;;;;;;7.80;7.00;;;;;;;;;;5035062;28;20035;-68
2023/03/01 13:42:46;;;;;;;8.88;7.90;;;;;;;;;;5034615;28;20029;-68
2023/03/01 13:45:20;;;;;;;9.90;7.97;;;;;;;;;;5035142;28;20040;-68
2023/03/01 13:47:49;;;;;;;8.73;7.90;;;;;;;;;;5035198;28;20031;-68
2023/03/01 13:50:21;;;;;;;9.40;8.30;;;;;;;;;;5034917;28;20068;-68
2023/03/01 13:52:52;;;;;;;11.65;10.55;;;;;;;;;;5034882;28;20024;-68
2023/03/01 13:55:21;;;;;;;8.93;7.70;;;;;;;;;;5034928;28;20497;-68
2023/03/01 13:57:53;;;;;;;8.70;7.85;;;;;;;;;;5035035;28;20497;-68
2023/03/01 14:00:32;;;;;;;9.30;7.82;;;;;;;;;;5034731;28;20021;-68
2023/03/01 14:03:03;;;;;;;8.68;7.53;;;;;;;;;;5066975;28;20031;-68
2023/03/01 14:05:30;;;;;;;7.90;7.10;;;;;;;;;;5034878;28;20033;-68
2023/03/01 14:07:56;;;;;;;8.27;7.47;;;;;;;;;;5034832;28;20026;-68
2023/03/01 14:10:26;;;;;;;8.27;7.45;;;;;;;;;;5034449;28;20026;-68
2023/03/01 14:13:01;;;;;;;12.77;9.77;;;;;;;;;;5034675;28;20032;-68
2023/03/01 14:15:32;;;;;;;8.45;7.60;;;;;;;;;;5034487;28;20490;-68
2023/03/01 14:18:04;;;;;;;8.50;6.97;;;;;;;;;;5034560;28;20031;-68
2023/03/01 14:20:41;;;;;;;9.07;7.78;;;;;;;;;;5034537;28;20063;-68
2023/03/01 14:23:14;;;;;;;10.20;9.15;;;;;;;;;;5034395;28;20017;-68
2023/03/01 14:25:47;;;;;;;8.75;7.90;;;;;;;;;;5033936;28;20053;-68
2023/03/01 14:28:19;;;;;;;8.88;8.00;;;;;;;;;;5033996;28;20029;-68
2023/03/01 14:30:50;;;;;;;9.93;8.93;;;;;;;;;;5034423;28;20029;-68
2023/03/01 14:33:25;;;;;;;10.40;9.35;;;;;;;;;;5033976;28;20036;-68
2023/03/01 14:36:05;;;;;;;8.82;7.93;;;;;;;;;;5034458;28;20489;-68
2023/03/01 14:38:38;;;;;;;9.27;8.30;;;;;;;;;;5034133;28;20459;-68
2023/03/01 14:41:30;;;;;;;8.75;7.85;;;;;;;;;;5033816;28;20025;-68